This is the latest recevied weather packets stored in our database for station/object LU8AQL-WX. If no packets are shown the sender has not sent any weather packets the latest 1 day(s).
| Time | Temp. | Humidity | Pressure | Rain* | Wind** | Luminosity | Snow |
|---|---|---|---|---|---|---|---|
| 1778028263 | 19.44° C | 89% | 1014 hPa | 0 mm | 4.47 m/s, 100° | - | - |
| 1778027662 | 19.44° C | 88% | 1014 hPa | 0 mm | 4.47 m/s, 100° | - | - |
| 1778027061 | 19.44° C | 89% | 1013 hPa | 0 mm | 4.47 m/s, 100° | - | - |
| 1778026460 | 19.44° C | 88% | 1013 hPa | 0 mm | 4.47 m/s, 100° | - | - |
| 1778025860 | 20° C | 87% | 1013 hPa | 0 mm | 4.02 m/s, 110° | - | - |
| 1778025259 | 20° C | 87% | 1013 hPa | 0 mm | 4.02 m/s, 110° | - | - |
| 1778024658 | 19.44° C | 87% | 1013 hPa | 0 mm | 4.02 m/s, 110° | - | - |
| 1778024057 | 20° C | 87% | 1013 hPa | 0 mm | 4.02 m/s, 110° | - | - |
| 1778023456 | 20° C | 87% | 1013 hPa | 0 mm | 4.02 m/s, 110° | - | - |
| 1778022855 | 20° C | 87% | 1013 hPa | 0 mm | 4.02 m/s, 110° | - | - |
| 1778022262 | 20.56° C | 88% | 1013 hPa | 0 mm | 2.68 m/s, 87° | - | - |
| 1778021653 | 20° C | 86% | 1013 hPa | 0 mm | 2.68 m/s, 87° | - | - |
| 1778021052 | 20° C | 85% | 1013 hPa | 0 mm | 2.68 m/s, 87° | - | - |
| 1778020450 | 20° C | 85% | 1013 hPa | 0 mm | 2.68 m/s, 87° | - | - |
| 1778019850 | 20° C | 85% | 1013 hPa | 0 mm | 2.24 m/s, 80° | - | - |
| 1778019249 | 20° C | 85% | 1013 hPa | 0 mm | 2.24 m/s, 80° | - | - |
| 1778018648 | 20° C | 85% | 1013 hPa | 0 mm | 3.58 m/s, 130° | - | - |
| 1778017445 | 20° C | 85% | 1013 hPa | 0 mm | 3.58 m/s, 130° | - | - |
| 1778016843 | 20° C | 85% | 1013 hPa | 0 mm | 3.58 m/s, 130° | - | - |
| 1778016242 | 20.56° C | 85% | 1013 hPa | 0 mm | 1.79 m/s, 73° | - | - |
| 1778015641 | 21.11° C | 84% | 1013 hPa | 0 mm | 1.79 m/s, 73° | - | - |
| 1778015040 | 21.11° C | 82% | 1013 hPa | 0 mm | 3.58 m/s, 110° | - | - |
| 1778014439 | 21.11° C | 81% | 1013 hPa | 0 mm | 3.58 m/s, 110° | - | - |
| 1778013837 | 21.11° C | 81% | 1013 hPa | 0 mm | 3.58 m/s, 110° | - | - |
| 1778013235 | 21.11° C | 81% | 1013 hPa | 0 mm | 3.58 m/s, 110° | - | - |
* Rain latest hour (hover to see other rain measurements)
** Current wind speed in m/s (hover to see current wind gust speed)